Time;durP1;ratioP1;P1;durP2;ratioP2;P2;SDS_P1;SDS_P2;PMS_P1;PMS_P2;Temp;Humidity;BMP_temperature;BMP_pressure;BME280_temperature;BME280_humidity;BME280_pressure;Samples;Min_cycle;Max_cycle;Signal;HPM_P1;HPM_P2
2024/04/06 00:00:09;;;;;;;10.70;4.20;;;;;;;-146.04;100.00;56920.13;4948676;28;20789;-71
2024/04/06 00:02:34;;;;;;;9.00;3.60;;;;;;;-146.04;100.00;56920.13;4950811;28;20306;-71
2024/04/06 00:05:00;;;;;;;13.25;3.65;;;;;;;-146.04;100.00;56920.13;4947127;28;20196;-71
2024/04/06 00:07:26;;;;;;;12.07;4.78;;;;;;;-146.04;100.00;56920.13;4956812;28;20691;-71
2024/04/06 00:09:51;;;;;;;9.77;3.63;;;;;;;-146.04;100.00;56920.13;4972779;28;20195;-72
2024/04/06 00:12:17;;;;;;;6.32;3.13;;;;;;;-146.04;100.00;56920.13;4969257;28;20187;-71
2024/04/06 00:14:42;;;;;;;5.72;4.13;;;;;;;-146.04;100.00;56920.13;4968582;28;20242;-72
2024/04/06 00:17:09;;;;;;;12.73;5.07;;;;;;;-146.04;100.00;56920.13;4967984;28;20637;-71
2024/04/06 00:19:35;;;;;;;7.15;3.65;;;;;;;-146.04;100.00;56920.13;4958175;28;20189;-71
2024/04/06 00:22:00;;;;;;;8.57;3.53;;;;;;;-146.04;100.00;56920.13;4970348;28;20223;-72
2024/04/06 00:24:25;;;;;;;7.07;4.80;;;;;;;-146.04;100.00;56920.13;4982178;28;20211;-71
2024/04/06 00:26:51;;;;;;;9.43;4.43;;;;;;;-146.04;100.00;56920.13;4994663;28;20268;-72
2024/04/06 00:29:17;;;;;;;11.60;5.13;;;;;;;-146.04;100.00;56920.13;4994931;28;20184;-71
2024/04/06 00:31:42;;;;;;;8.10;4.05;;;;;;;-146.04;100.00;56920.13;4989708;28;20189;-72
2024/04/06 00:34:07;;;;;;;10.40;4.65;;;;;;;-146.04;100.00;56920.13;4987291;28;20212;-72
2024/04/06 00:36:33;;;;;;;9.75;5.15;;;;;;;-146.04;100.00;56920.13;4979033;28;20188;-71
2024/04/06 00:38:58;;;;;;;13.45;5.88;;;;;;;-146.04;100.00;56920.13;4966660;28;20204;-71
2024/04/06 00:41:24;;;;;;;10.25;6.32;;;;;;;-146.04;100.00;56920.13;4971128;28;20294;-71
2024/04/06 00:43:49;;;;;;;9.32;5.00;;;;;;;-146.04;100.00;56920.13;4968231;28;20204;-71
2024/04/06 00:46:16;;;;;;;9.88;5.57;;;;;;;-146.04;100.00;56920.13;4969919;28;20188;-72
2024/04/06 00:48:41;;;;;;;11.77;5.40;;;;;;;-146.04;100.00;56920.13;4969075;28;20187;-71
2024/04/06 00:51:07;;;;;;;10.90;7.45;;;;;;;-146.04;100.00;56920.13;4969505;28;20266;-71
2024/04/06 00:53:33;;;;;;;14.32;6.13;;;;;;;-146.04;100.00;56920.13;4969611;28;20220;-71
2024/04/06 00:55:59;;;;;;;11.85;6.15;;;;;;;-146.04;100.00;56920.13;4972383;28;20191;-71
2024/04/06 00:58:25;;;;;;;10.50;6.03;;;;;;;-146.04;100.00;56920.13;4993163;28;20202;-71
2024/04/06 01:00:51;;;;;;;10.63;6.13;;;;;;;-146.04;100.00;56920.13;4987154;28;20268;-71
2024/04/06 01:03:16;;;;;;;8.40;6.00;;;;;;;-146.04;100.00;56920.13;4988475;28;20212;-71
2024/04/06 01:05:41;;;;;;;12.23;6.43;;;;;;;-146.04;100.00;56920.13;4987914;28;20185;-71
2024/04/06 01:08:07;;;;;;;10.93;5.70;;;;;;;-146.04;100.00;56920.13;4963770;28;20631;-72
2024/04/06 01:10:33;;;;;;;10.15;6.43;;;;;;;-146.04;100.00;56920.13;4962999;28;20278;-71
2024/04/06 01:12:59;;;;;;;10.35;6.05;;;;;;;-146.04;100.00;56920.13;4958133;28;20254;-71
2024/04/06 01:15:24;;;;;;;9.48;5.53;;;;;;;-146.04;100.00;56920.13;4960985;28;20219;-71
2024/04/06 01:17:51;;;;;;;8.18;5.28;;;;;;;-146.04;100.00;56920.13;4961217;28;20188;-71
2024/04/06 01:20:17;;;;;;;14.00;7.30;;;;;;;-146.04;100.00;56920.13;4962970;28;20360;-71
2024/04/06 01:22:46;;;;;;;10.80;6.20;;;;;;;-146.04;100.00;56920.13;4962400;28;20177;-71
2024/04/06 01:25:12;;;;;;;8.75;5.55;;;;;;;-146.04;100.00;56920.13;4963310;28;20176;-71
2024/04/06 01:27:37;;;;;;;12.07;6.30;;;;;;;-146.04;100.00;56920.13;4960834;28;20727;-71
2024/04/06 01:30:05;;;;;;;6.72;5.70;;;;;;;-146.04;100.00;56920.13;4957058;28;20212;-71
2024/04/06 01:32:30;;;;;;;15.82;6.38;;;;;;;-146.04;100.00;56920.13;4963798;28;20684;-73
2024/04/06 01:34:55;;;;;;;10.93;5.43;;;;;;;-146.04;100.00;56920.13;4967128;28;20621;-71
2024/04/06 01:37:21;;;;;;;8.00;5.78;;;;;;;-146.04;100.00;56920.13;4965393;28;20656;-71
2024/04/06 01:39:46;;;;;;;8.30;5.70;;;;;;;-146.04;100.00;56920.13;4969571;28;20231;-71
2024/04/06 01:42:11;;;;;;;8.52;5.63;;;;;;;-146.04;100.00;56920.13;4967869;28;20184;-71
2024/04/06 01:44:36;;;;;;;10.68;6.72;;;;;;;-146.04;100.00;56920.13;4966232;28;20203;-71
2024/04/06 01:47:02;;;;;;;6.57;5.93;;;;;;;-146.04;100.00;56920.13;4968489;28;20283;-71
2024/04/06 01:49:27;;;;;;;8.85;6.25;;;;;;;-146.04;100.00;56920.13;4962314;28;20243;-71
2024/04/06 01:51:53;;;;;;;10.07;6.97;;;;;;;-146.04;100.00;56920.13;4963223;28;20219;-72
2024/04/06 01:54:18;;;;;;;8.55;5.32;;;;;;;-146.04;100.00;56920.13;4966922;28;21141;-71
2024/04/06 01:56:45;;;;;;;10.55;5.75;;;;;;;-146.04;100.00;56920.13;4966953;28;20201;-71
2024/04/06 01:59:10;;;;;;;7.70;5.40;;;;;;;-146.04;100.00;56920.13;4967352;28;20239;-71
2024/04/06 02:01:35;;;;;;;6.65;5.53;;;;;;;-146.04;100.00;56920.13;4965793;28;20671;-72
2024/04/06 02:04:01;;;;;;;11.25;6.00;;;;;;;-146.04;100.00;56920.13;4968626;28;20208;-71
2024/04/06 02:06:26;;;;;;;8.52;5.68;;;;;;;-146.04;100.00;56920.13;4966669;28;20188;-71
2024/04/06 02:08:52;;;;;;;4.97;4.40;;;;;;;-146.04;100.00;56920.13;4961188;28;20219;-71
2024/04/06 02:11:17;;;;;;;8.18;4.50;;;;;;;-146.04;100.00;56920.13;4966066;28;20192;-71
2024/04/06 02:13:42;;;;;;;7.63;5.63;;;;;;;-146.04;100.00;56920.13;4969219;28;20259;-71
2024/04/06 02:16:07;;;;;;;7.97;5.32;;;;;;;-146.04;100.00;56920.13;4969138;28;20222;-72
2024/04/06 02:18:33;;;;;;;6.65;5.60;;;;;;;-146.04;100.00;56920.13;4968850;28;20176;-71
2024/04/06 02:20:58;;;;;;;7.53;5.50;;;;;;;-146.04;100.00;56920.13;4966093;28;20247;-72
2024/04/06 02:23:23;;;;;;;7.30;4.72;;;;;;;-146.04;100.00;56920.13;4962199;28;20271;-71
2024/04/06 02:25:49;;;;;;;11.93;5.63;;;;;;;-146.04;100.00;56920.13;4968578;28;20192;-72
2024/04/06 02:28:14;;;;;;;5.75;4.90;;;;;;;-146.04;100.00;56920.13;4961279;28;20259;-72
2024/04/06 02:30:39;;;;;;;10.07;5.78;;;;;;;-146.04;100.00;56920.13;4967894;28;20184;-72
2024/04/06 02:33:05;;;;;;;15.93;6.22;;;;;;;-146.04;100.00;56920.13;4969497;28;20582;-71
2024/04/06 02:35:30;;;;;;;10.55;5.72;;;;;;;-146.04;100.00;56920.13;4968693;28;20180;-72
2024/04/06 02:37:55;;;;;;;9.50;6.53;;;;;;;-146.04;100.00;56920.13;4967725;28;20188;-71
2024/04/06 02:40:21;;;;;;;8.30;6.55;;;;;;;-146.04;100.00;56920.13;4970448;28;20695;-72
2024/04/06 02:42:46;;;;;;;8.02;5.15;;;;;;;-146.04;100.00;56920.13;4967135;28;20231;-72
2024/04/06 02:45:12;;;;;;;9.25;6.07;;;;;;;-146.04;100.00;56920.13;4963347;28;20180;-71
2024/04/06 02:47:37;;;;;;;12.70;5.88;;;;;;;-146.04;100.00;56920.13;4962775;28;20239;-71
2024/04/06 02:50:03;;;;;;;6.97;4.93;;;;;;;-146.04;100.00;56920.13;4967694;28;20192;-72
2024/04/06 02:52:28;;;;;;;7.97;4.88;;;;;;;-146.04;100.00;56920.13;4966528;28;20180;-72
2024/04/06 02:54:53;;;;;;;7.25;5.00;;;;;;;-146.04;100.00;56920.13;4967955;28;20319;-71
2024/04/06 02:57:19;;;;;;;8.23;4.78;;;;;;;-146.04;100.00;56920.13;4968598;28;20195;-72
2024/04/06 02:59:45;;;;;;;6.70;4.57;;;;;;;-146.04;100.00;56920.13;4965036;28;20558;-71
2024/04/06 03:02:10;;;;;;;6.65;4.20;;;;;;;-146.04;100.00;56920.13;4957394;28;20180;-71
2024/04/06 03:04:36;;;;;;;6.35;4.45;;;;;;;-146.04;100.00;56920.13;4963032;28;20680;-72
2024/04/06 03:07:02;;;;;;;6.88;4.50;;;;;;;-146.04;100.00;56920.13;4968871;28;20296;-71
2024/04/06 03:09:27;;;;;;;7.25;4.85;;;;;;;-146.04;100.00;56920.13;4970283;28;20181;-71
2024/04/06 03:11:53;;;;;;;7.95;4.45;;;;;;;-146.04;100.00;56920.13;4968831;28;20274;-71
2024/04/06 03:14:18;;;;;;;4.22;3.70;;;;;;;-146.04;100.00;56920.13;4969996;28;20498;-72
2024/04/06 03:16:43;;;;;;;9.32;4.47;;;;;;;-146.04;100.00;56920.13;4965787;28;20181;-71
2024/04/06 03:19:09;;;;;;;6.53;4.15;;;;;;;-146.04;100.00;56920.13;4959285;28;20196;-72
2024/04/06 03:21:34;;;;;;;4.85;4.10;;;;;;;-146.04;100.00;56920.13;4962398;28;20692;-71
2024/04/06 03:23:59;;;;;;;4.90;3.80;;;;;;;-146.04;100.00;56920.13;4970543;28;20690;-71
2024/04/06 03:26:25;;;;;;;7.15;4.65;;;;;;;-146.04;100.00;56920.13;4971111;28;20219;-72
2024/04/06 03:28:51;;;;;;;5.22;3.70;;;;;;;-146.04;100.00;56920.13;4962262;28;20559;-72
2024/04/06 03:31:17;;;;;;;6.00;3.97;;;;;;;-146.04;100.00;56920.13;4969421;28;20284;-72
2024/04/06 03:33:42;;;;;;;7.13;4.25;;;;;;;-146.04;100.00;56920.13;4971523;28;20283;-72
2024/04/06 03:36:07;;;;;;;8.93;4.55;;;;;;;-146.04;100.00;56920.13;4967590;28;20220;-72
2024/04/06 03:38:33;;;;;;;6.38;4.35;;;;;;;-146.04;100.00;56920.13;4964075;28;20177;-72
2024/04/06 03:40:58;;;;;;;7.30;3.88;;;;;;;-146.04;100.00;56920.13;4969777;28;20276;-72
2024/04/06 03:43:23;;;;;;;7.35;4.22;;;;;;;-146.04;100.00;56920.13;4968129;28;20279;-72
2024/04/06 03:45:50;;;;;;;5.05;3.70;;;;;;;-146.04;100.00;56920.13;4971729;28;20283;-72
2024/04/06 03:48:15;;;;;;;3.88;3.10;;;;;;;-146.04;100.00;56920.13;4972119;28;20215;-72
2024/04/06 03:50:40;;;;;;;6.13;3.45;;;;;;;-146.04;100.00;56920.13;4972259;28;20193;-71
2024/04/06 03:53:06;;;;;;;9.52;5.47;;;;;;;-146.04;100.00;56920.13;4969362;28;20204;-71
2024/04/06 03:55:31;;;;;;;6.97;4.13;;;;;;;-146.04;100.00;56920.13;4971360;28;20251;-71
2024/04/06 03:57:56;;;;;;;6.85;4.38;;;;;;;-146.04;100.00;56920.13;4972531;28;20271;-72
2024/04/06 04:00:22;;;;;;;6.03;3.80;;;;;;;-146.04;100.00;56920.13;4966231;28;20190;-71
2024/04/06 04:02:47;;;;;;;9.27;4.85;;;;;;;-146.04;100.00;56920.13;4966714;28;20236;-72
2024/04/06 04:05:12;;;;;;;5.78;3.92;;;;;;;-146.04;100.00;56920.13;4967476;28;20180;-72
2024/04/06 04:07:38;;;;;;;9.63;4.88;;;;;;;-146.04;100.00;56920.13;4966478;28;20268;-72
2024/04/06 04:10:05;;;;;;;7.57;4.25;;;;;;;-146.04;100.00;56920.13;4962883;28;20193;-72
2024/04/06 04:12:33;;;;;;;12.43;4.55;;;;;;;-146.04;100.00;56920.13;4965584;28;20244;-71
2024/04/06 04:15:02;;;;;;;5.68;3.88;;;;;;;-146.04;100.00;56920.13;4970522;28;20199;-71
2024/04/06 04:17:27;;;;;;;6.90;3.80;;;;;;;-146.04;100.00;56920.13;4967927;28;20184;-71
2024/04/06 04:19:52;;;;;;;7.47;4.10;;;;;;;-146.04;100.00;56920.13;4965546;28;20575;-72
2024/04/06 04:22:18;;;;;;;6.55;4.07;;;;;;;-146.04;100.00;56920.13;4968718;28;20184;-72
2024/04/06 04:24:43;;;;;;;6.35;4.45;;;;;;;-146.04;100.00;56920.13;4970205;28;20335;-72
2024/04/06 04:27:09;;;;;;;10.95;5.03;;;;;;;-146.04;100.00;56920.13;4970283;28;20220;-71
2024/04/06 04:29:34;;;;;;;6.15;4.07;;;;;;;-146.04;100.00;56920.13;4968894;28;20239;-71
2024/04/06 04:32:00;;;;;;;7.93;4.50;;;;;;;-146.04;100.00;56920.13;4965858;28;20234;-71
2024/04/06 04:34:25;;;;;;;7.18;5.07;;;;;;;-146.04;100.00;56920.13;4964501;28;20204;-71
2024/04/06 04:36:50;;;;;;;5.50;4.25;;;;;;;-146.04;100.00;56920.13;4971806;28;20184;-71
2024/04/06 04:39:15;;;;;;;6.75;4.93;;;;;;;-146.04;100.00;56920.13;4964628;28;20629;-71
2024/04/06 04:41:41;;;;;;;6.07;4.78;;;;;;;-146.04;100.00;56920.13;4964785;28;20200;-71
2024/04/06 04:44:07;;;;;;;9.13;5.35;;;;;;;-146.04;100.00;56920.13;4965787;28;20266;-71
2024/04/06 04:46:32;;;;;;;8.70;5.22;;;;;;;-146.04;100.00;56920.13;4966144;28;20582;-71
2024/04/06 04:48:59;;;;;;;5.85;4.65;;;;;;;-146.04;100.00;56920.13;4960325;28;20188;-71
2024/04/06 04:51:25;;;;;;;7.85;4.40;;;;;;;-146.04;100.00;56920.13;4969601;28;20192;-71
2024/04/06 04:53:51;;;;;;;8.32;4.65;;;;;;;-146.04;100.00;56920.13;4969525;28;20212;-71
2024/04/06 04:56:17;;;;;;;9.10;5.13;;;;;;;-146.04;100.00;56920.13;4966607;28;20573;-71
2024/04/06 04:58:42;;;;;;;6.72;4.22;;;;;;;-146.04;100.00;56920.13;4967304;28;20234;-71
2024/04/06 05:01:08;;;;;;;11.15;4.47;;;;;;;-146.04;100.00;56920.13;4968309;28;20271;-71
2024/04/06 05:03:34;;;;;;;5.30;3.67;;;;;;;-146.04;100.00;56920.13;4966053;28;20671;-71
2024/04/06 05:05:59;;;;;;;7.97;4.75;;;;;;;-146.04;100.00;56920.13;4961960;28;20184;-71
2024/04/06 05:08:25;;;;;;;8.85;4.30;;;;;;;-146.04;100.00;56920.13;4968597;28;20212;-71
2024/04/06 05:10:51;;;;;;;5.47;4.28;;;;;;;-146.04;100.00;56920.13;4967579;28;20191;-71
2024/04/06 05:13:16;;;;;;;5.90;4.18;;;;;;;-146.04;100.00;56920.13;4969074;28;20228;-71
2024/04/06 05:15:49;;;;;;;6.95;3.92;;;;;;;-146.04;100.00;56920.13;4966681;28;20570;-71
2024/04/06 05:18:14;;;;;;;7.22;3.75;;;;;;;-146.04;100.00;56920.13;4966400;28;20195;-71
2024/04/06 05:21:01;;;;;;;4.40;4.00;;;;;;;-146.04;100.00;56920.13;4962553;28;20664;-71
2024/04/06 05:23:27;;;;;;;6.78;3.72;;;;;;;-146.04;100.00;56920.13;4959927;28;20331;-71
2024/04/06 05:25:53;;;;;;;4.50;3.53;;;;;;;-146.04;100.00;56920.13;4956101;28;20212;-70
2024/04/06 05:28:27;;;;;;;6.32;3.75;;;;;;;-146.04;100.00;56920.13;4963284;28;20207;-71
2024/04/06 05:30:53;;;;;;;7.20;4.22;;;;;;;-146.04;100.00;56920.13;4965269;28;20188;-70
2024/04/06 05:33:20;;;;;;;4.68;3.67;;;;;;;-146.04;100.00;56920.13;4963949;28;20296;-70
2024/04/06 05:35:48;;;;;;;6.95;3.97;;;;;;;-146.04;100.00;56920.13;4962437;28;20193;-71
2024/04/06 05:38:17;;;;;;;7.55;3.70;;;;;;;-146.04;100.00;56920.13;4968367;28;20188;-70
2024/04/06 05:40:46;;;;;;;7.82;3.90;;;;;;;-146.04;100.00;56920.13;4963887;28;20185;-71
2024/04/06 05:43:12;;;;;;;7.30;3.70;;;;;;;-146.04;100.00;56920.13;4957223;28;20208;-71
2024/04/06 05:45:39;;;;;;;5.70;3.47;;;;;;;-146.04;100.00;56920.13;4958698;28;20185;-71
2024/04/06 05:48:08;;;;;;;6.45;3.30;;;;;;;-146.04;100.00;56920.13;4968296;28;20275;-70
2024/04/06 05:50:36;;;;;;;4.10;2.72;;;;;;;-146.04;100.00;56920.13;4966382;28;20189;-70
2024/04/06 05:53:03;;;;;;;4.35;3.05;;;;;;;-146.04;100.00;56920.13;4962967;28;20204;-70
2024/04/06 05:55:28;;;;;;;3.42;2.90;;;;;;;-146.04;100.00;56920.13;4962361;28;20184;-70
2024/04/06 05:57:54;;;;;;;6.32;3.85;;;;;;;-146.04;100.00;56920.13;4964909;28;20195;-70
2024/04/06 06:00:20;;;;;;;3.97;2.60;;;;;;;-146.04;100.00;56920.13;4964885;28;20620;-70
2024/04/06 06:02:46;;;;;;;5.55;3.13;;;;;;;-146.04;100.00;56920.13;4961712;28;20212;-70
2024/04/06 06:05:11;;;;;;;3.17;2.40;;;;;;;-146.04;100.00;56920.13;4965672;28;20573;-71
2024/04/06 06:07:37;;;;;;;5.85;2.75;;;;;;;-146.04;100.00;56920.13;4962500;28;20251;-70
2024/04/06 06:10:03;;;;;;;4.18;2.17;;;;;;;-146.04;100.00;56920.13;4968919;28;20671;-70
2024/04/06 06:12:29;;;;;;;3.95;2.63;;;;;;;-146.04;100.00;56920.13;4960520;28;20508;-71
2024/04/06 06:14:54;;;;;;;3.92;2.47;;;;;;;-146.04;100.00;56920.13;4959835;28;20188;-70
2024/04/06 06:17:20;;;;;;;3.30;2.67;;;;;;;-146.04;100.00;56920.13;4959632;28;20576;-71
2024/04/06 06:19:45;;;;;;;4.13;2.85;;;;;;;-146.04;100.00;56920.13;4963987;28;20180;-70
2024/04/06 06:22:10;;;;;;;5.03;2.50;;;;;;;-146.04;100.00;56920.13;4961751;28;20246;-71
2024/04/06 06:24:37;;;;;;;3.80;2.55;;;;;;;-146.04;100.00;56920.13;4967613;28;20262;-71
2024/04/06 06:27:02;;;;;;;3.53;2.22;;;;;;;-146.04;100.00;56920.13;4965066;28;20201;-70
2024/04/06 06:29:28;;;;;;;3.47;2.53;;;;;;;-146.04;100.00;56920.13;4963135;28;20287;-71
2024/04/06 06:31:55;;;;;;;4.22;2.55;;;;;;;-146.04;100.00;56920.13;4962653;28;20192;-70
2024/04/06 06:34:21;;;;;;;4.28;2.58;;;;;;;-146.04;100.00;56920.13;4974665;28;20219;-71
2024/04/06 06:36:49;;;;;;;5.05;2.75;;;;;;;-146.04;100.00;56920.13;4969373;28;20476;-70
2024/04/06 06:39:14;;;;;;;5.65;2.05;;;;;;;-146.04;100.00;56920.13;4959495;28;20189;-71
2024/04/06 06:41:40;;;;;;;5.13;2.70;;;;;;;-146.04;100.00;56920.13;4963141;28;20181;-71
2024/04/06 06:44:05;;;;;;;4.82;2.55;;;;;;;-146.04;100.00;56920.13;4966025;28;20215;-71
2024/04/06 06:46:31;;;;;;;7.72;2.60;;;;;;;-146.04;100.00;56920.13;4961587;28;20189;-71
2024/04/06 06:48:56;;;;;;;4.55;2.67;;;;;;;-146.04;100.00;56920.13;4963952;28;20180;-71
2024/04/06 06:51:22;;;;;;;4.55;2.72;;;;;;;-146.04;100.00;56920.13;4968585;28;20275;-70
2024/04/06 06:53:47;;;;;;;5.07;2.72;;;;;;;-146.04;100.00;56920.13;4964223;28;20215;-70
2024/04/06 06:56:12;;;;;;;5.40;3.70;;;;;;;-146.04;100.00;56920.13;4962889;28;20180;-71
2024/04/06 06:58:38;;;;;;;3.63;2.70;;;;;;;-146.04;100.00;56920.13;4991690;28;20188;-71
2024/04/06 07:01:03;;;;;;;3.72;2.70;;;;;;;-146.04;100.00;56920.13;4986134;28;20240;-71
2024/04/06 07:03:28;;;;;;;6.32;3.22;;;;;;;-146.04;100.00;56920.13;4979329;28;20227;-71
2024/04/06 07:05:54;;;;;;;4.05;2.67;;;;;;;-146.04;100.00;56920.13;4985242;28;20271;-70
2024/04/06 07:08:19;;;;;;;7.15;2.63;;;;;;;-146.04;100.00;56920.13;4971607;28;20258;-71
2024/04/06 07:10:44;;;;;;;10.15;3.65;;;;;;;-146.04;100.00;56920.13;4963869;28;20245;-70
2024/04/06 07:13:10;;;;;;;4.20;2.42;;;;;;;-146.04;100.00;56920.13;4971069;28;20766;-71
2024/04/06 07:15:35;;;;;;;3.78;2.78;;;;;;;-146.04;100.00;56920.13;4972469;28;20790;-71
2024/04/06 07:18:00;;;;;;;4.78;2.30;;;;;;;-146.04;100.00;56920.13;4965258;28;20276;-71
2024/04/06 07:20:26;;;;;;;4.07;2.03;;;;;;;-146.04;100.00;56920.13;4960611;28;20744;-71
2024/04/06 07:22:51;;;;;;;3.38;2.42;;;;;;;-146.04;100.00;56920.13;4986470;23;20231;-69
2024/04/06 07:25:20;;;;;;;2.80;2.10;;;;;;;-146.04;100.00;56920.13;4964890;28;20205;-70
2024/04/06 07:27:45;;;;;;;4.25;2.25;;;;;;;-146.04;100.00;56920.13;4967244;28;20303;-69
2024/04/06 07:30:10;;;;;;;3.72;2.47;;;;;;;-146.04;100.00;56920.13;4964218;28;20283;-70
2024/04/06 07:32:37;;;;;;;4.57;2.25;;;;;;;-146.04;100.00;56920.13;4964724;28;20543;-70
2024/04/06 07:35:04;;;;;;;2.78;1.85;;;;;;;-146.04;100.00;56920.13;4962930;28;20219;-69
2024/04/06 07:37:29;;;;;;;3.85;2.25;;;;;;;-146.04;100.00;56920.13;4964440;28;20180;-69
2024/04/06 07:39:55;;;;;;;5.03;2.08;;;;;;;-146.04;100.00;56920.13;4961114;28;20224;-69
2024/04/06 07:42:20;;;;;;;5.38;2.50;;;;;;;-146.04;100.00;56920.13;4961782;28;20674;-69
2024/04/06 07:44:45;;;;;;;4.00;2.22;;;;;;;-146.04;100.00;56920.13;4961231;28;20208;-70
2024/04/06 07:47:11;;;;;;;3.00;2.25;;;;;;;-146.04;100.00;56920.13;4974146;28;20196;-70
2024/04/06 07:49:36;;;;;;;3.25;1.90;;;;;;;-146.04;100.00;56920.13;4967940;28;20836;-69
2024/04/06 07:52:01;;;;;;;2.83;1.65;;;;;;;-146.04;100.00;56920.13;4963800;28;20352;-69
2024/04/06 07:54:27;;;;;;;3.75;1.75;;;;;;;-146.04;100.00;56920.13;4969669;28;20262;-71
2024/04/06 07:56:52;;;;;;;3.10;1.98;;;;;;;-146.04;100.00;56920.13;4960870;28;20200;-70
2024/04/06 07:59:17;;;;;;;4.85;1.80;;;;;;;-146.04;100.00;56920.13;4968031;28;20263;-71
2024/04/06 08:01:43;;;;;;;2.92;1.70;;;;;;;-146.04;100.00;56920.13;4964959;28;20196;-72
2024/04/06 08:04:09;;;;;;;3.53;1.85;;;;;;;-146.04;100.00;56920.13;4959558;28;20212;-71
2024/04/06 08:06:35;;;;;;;2.65;1.67;;;;;;;-146.04;100.00;56920.13;4960862;28;20195;-68
2024/04/06 08:09:00;;;;;;;2.10;1.38;;;;;;;-146.04;100.00;56920.13;4965622;28;20192;-68
2024/04/06 08:11:25;;;;;;;2.28;1.33;;;;;;;-146.04;100.00;56920.13;4962700;28;20275;-69
2024/04/06 08:13:50;;;;;;;5.80;2.03;;;;;;;-146.04;100.00;56920.13;4963467;28;20215;-69
2024/04/06 08:16:16;;;;;;;1.73;1.33;;;;;;;-146.04;100.00;56920.13;4962823;28;20759;-70
2024/04/06 08:18:41;;;;;;;1.88;1.65;;;;;;;-146.04;100.00;56920.13;4967472;28;20184;-69
2024/04/06 08:21:06;;;;;;;5.00;1.30;;;;;;;-146.04;100.00;56920.13;4963181;28;20188;-69
2024/04/06 08:23:32;;;;;;;2.47;1.48;;;;;;;-146.04;100.00;56920.13;4960667;28;20227;-69
2024/04/06 08:25:57;;;;;;;4.10;1.70;;;;;;;-146.04;100.00;56920.13;4961698;28;20620;-69
2024/04/06 08:28:22;;;;;;;2.03;1.38;;;;;;;-146.04;100.00;56920.13;4962333;28;20298;-70
2024/04/06 08:30:48;;;;;;;2.67;1.80;;;;;;;-146.04;100.00;56920.13;4964436;28;20822;-70
2024/04/06 08:33:13;;;;;;;4.25;1.80;;;;;;;-146.04;100.00;56920.13;4963659;28;20743;-72
2024/04/06 08:35:39;;;;;;;2.85;1.60;;;;;;;-146.04;100.00;56920.13;4962609;28;20302;-73
2024/04/06 08:38:04;;;;;;;3.10;1.33;;;;;;;-146.04;100.00;56920.13;4963907;28;20226;-69
2024/04/06 08:40:30;;;;;;;1.98;1.63;;;;;;;-146.04;100.00;56920.13;4958457;28;20185;-70
2024/04/06 08:43:03;;;;;;;5.13;1.60;;;;;;;-146.04;100.00;56920.13;4962211;28;20191;-69
2024/04/06 08:45:29;;;;;;;1.98;1.13;;;;;;;-146.04;100.00;56920.13;4963082;28;20279;-70
2024/04/06 08:47:55;;;;;;;2.05;1.65;;;;;;;-146.04;100.00;56920.13;4969075;28;20254;-69
2024/04/06 08:50:21;;;;;;;3.58;1.38;;;;;;;-146.04;100.00;56920.13;4966412;28;20192;-70
2024/04/06 08:52:46;;;;;;;2.50;1.40;;;;;;;-146.04;100.00;56920.13;4962075;28;20204;-70
2024/04/06 08:55:12;;;;;;;3.97;1.50;;;;;;;-146.04;100.00;56920.13;4974330;28;20280;-72
2024/04/06 08:57:40;;;;;;;4.05;1.20;;;;;;;-146.04;100.00;56920.13;4965664;28;20181;-70
2024/04/06 09:00:09;;;;;;;2.60;1.42;;;;;;;-146.04;100.00;56920.13;4969670;28;20708;-70
2024/04/06 09:02:35;;;;;;;3.50;1.50;;;;;;;-146.04;100.00;56920.13;4963447;28;20727;-71
2024/04/06 09:05:01;;;;;;;3.78;1.35;;;;;;;-146.04;100.00;56920.13;4964389;28;20296;-75
2024/04/06 09:07:26;;;;;;;2.38;1.10;;;;;;;-146.04;100.00;56920.13;4967589;28;20624;-71
2024/04/06 09:09:53;;;;;;;2.45;1.40;;;;;;;-146.04;100.00;56920.13;4968096;28;20235;-70
2024/04/06 09:12:19;;;;;;;5.38;1.60;;;;;;;-146.04;100.00;56920.13;4968887;28;20239;-70
2024/04/06 09:14:46;;;;;;;2.63;1.30;;;;;;;-146.04;100.00;56920.13;4971100;28;20576;-76
2024/04/06 09:17:13;;;;;;;1.40;0.98;;;;;;;-146.04;100.00;56920.13;4967686;28;20180;-72
2024/04/06 09:19:39;;;;;;;2.17;1.50;;;;;;;-146.04;100.00;56920.13;4968929;28;20184;-72
2024/04/06 09:22:04;;;;;;;2.05;1.40;;;;;;;-146.04;100.00;56920.13;4964599;28;20280;-73
2024/04/06 09:24:30;;;;;;;2.28;1.33;;;;;;;-146.04;100.00;56920.13;4970640;28;20432;-71
2024/04/06 09:27:09;;;;;;;3.50;1.65;;;;;;;-146.04;100.00;56920.13;4963046;28;20617;-69
2024/04/06 09:29:35;;;;;;;3.70;1.35;;;;;;;-146.04;100.00;56920.13;4948297;28;20199;-70
2024/04/06 09:32:03;;;;;;;3.80;1.38;;;;;;;-146.04;100.00;56920.13;4947437;28;20212;-71
2024/04/06 09:34:29;;;;;;;2.50;1.30;;;;;;;-146.04;100.00;56920.13;4949480;28;20212;-70
2024/04/06 09:37:10;;;;;;;3.20;1.20;;;;;;;-146.04;100.00;56920.13;4950076;28;20195;-70
2024/04/06 09:39:37;;;;;;;4.85;1.33;;;;;;;-146.04;100.00;56920.13;4949348;28;20180;-70
2024/04/06 09:42:05;;;;;;;3.88;1.52;;;;;;;-146.04;100.00;56920.13;4947634;28;20176;-69
2024/04/06 09:44:32;;;;;;;3.80;1.40;;;;;;;-146.04;100.00;56920.13;4948242;28;20208;-73
2024/04/06 09:46:57;;;;;;;3.13;1.30;;;;;;;-146.04;100.00;56920.13;4947582;28;20269;-70
2024/04/06 09:49:26;;;;;;;4.30;1.55;;;;;;;-146.04;100.00;56920.13;4951142;28;20189;-70
2024/04/06 09:51:53;;;;;;;3.60;1.30;;;;;;;-146.04;100.00;56920.13;4949631;28;20274;-71
2024/04/06 09:54:19;;;;;;;1.95;1.33;;;;;;;-146.04;100.00;56920.13;4954238;28;20211;-69
2024/04/06 09:56:49;;;;;;;4.28;1.20;;;;;;;-146.04;100.00;56920.13;4952493;28;20923;-71
2024/04/06 09:59:21;;;;;;;4.18;1.20;;;;;;;-146.04;100.00;56920.13;4949917;28;20192;-69
2024/04/06 10:01:46;;;;;;;1.73;1.15;;;;;;;-146.04;100.00;56920.13;4952914;28;20193;-70
2024/04/06 10:04:23;;;;;;;2.95;1.20;;;;;;;-146.04;100.00;56920.13;4955570;28;20208;-70
2024/04/06 10:06:53;;;;;;;1.92;1.00;;;;;;;-146.04;100.00;56920.13;4949130;28;20196;-70
2024/04/06 10:09:18;;;;;;;2.72;1.23;;;;;;;-146.04;100.00;56920.13;4953871;28;20664;-69
2024/04/06 10:11:44;;;;;;;2.28;1.23;;;;;;;-146.04;100.00;56920.13;4951212;28;20274;-70
2024/04/06 10:14:09;;;;;;;2.92;1.23;;;;;;;-146.04;100.00;56920.13;4954194;28;20587;-68
2024/04/06 10:16:40;;;;;;;2.80;1.15;;;;;;;-146.04;100.00;56920.13;4948404;28;20393;-71
2024/04/06 10:19:08;;;;;;;3.90;1.50;;;;;;;-146.04;100.00;56920.13;4963042;28;20439;-71
2024/04/06 10:21:36;;;;;;;3.00;1.10;;;;;;;-146.04;100.00;56920.13;4958793;28;20188;-71
2024/04/06 10:24:09;;;;;;;2.20;1.30;;;;;;;-146.04;100.00;56920.13;4963082;28;20694;-69
2024/04/06 10:26:35;;;;;;;3.83;1.70;;;;;;;-146.04;100.00;56920.13;4963452;28;20274;-71
2024/04/06 10:29:02;;;;;;;3.35;1.48;;;;;;;-146.04;100.00;56920.13;4963885;28;20203;-69
2024/04/06 10:31:27;;;;;;;2.33;0.95;;;;;;;-146.04;100.00;56920.13;4968791;28;20255;-69
2024/04/06 10:33:53;;;;;;;4.13;1.35;;;;;;;-146.04;100.00;56920.13;4961572;28;20580;-70
2024/04/06 10:36:19;;;;;;;4.70;1.40;;;;;;;-146.04;100.00;56920.13;4969758;28;20239;-70
2024/04/06 10:38:45;;;;;;;2.80;1.00;;;;;;;-146.04;100.00;56920.13;4973202;28;20593;-69
2024/04/06 10:41:10;;;;;;;2.22;1.00;;;;;;;-146.04;100.00;56920.13;4971564;28;20611;-69
2024/04/06 10:43:36;;;;;;;3.53;0.95;;;;;;;-146.04;100.00;56920.13;4973291;28;20239;-69
2024/04/06 10:46:02;;;;;;;3.22;1.20;;;;;;;-146.04;100.00;56920.13;4968480;28;20188;-69
2024/04/06 10:48:28;;;;;;;1.77;0.70;;;;;;;-146.04;100.00;56920.13;4962594;28;20248;-69
2024/04/06 10:50:54;;;;;;;5.15;1.20;;;;;;;-146.04;100.00;56920.13;4972260;28;20196;-69
2024/04/06 10:53:22;;;;;;;3.95;1.20;;;;;;;-146.04;100.00;56920.13;4972060;28;20207;-69
2024/04/06 10:55:48;;;;;;;1.52;0.82;;;;;;;-146.04;100.00;56920.13;4974912;28;20231;-70
2024/04/06 10:58:14;;;;;;;2.72;0.90;;;;;;;-146.04;100.00;56920.13;4970913;28;20436;-69
2024/04/06 11:00:40;;;;;;;2.42;1.10;;;;;;;-146.04;100.00;56920.13;4975619;28;20775;-69
2024/04/06 11:03:07;;;;;;;1.30;0.63;;;;;;;-146.04;100.00;56920.13;4974408;28;20204;-70